Time;durP1;ratioP1;P1;durP2;ratioP2;P2;SDS_P1;SDS_P2;PMS_P1;PMS_P2;Temp;Humidity;BMP_temperature;BMP_pressure;BME280_temperature;BME280_humidity;BME280_pressure;Samples;Min_cycle;Max_cycle;Signal;HPM_P1;HPM_P2
2023/12/07 00:01:26;;;;;;;83.13;31.35;;;;;;;2.60;100.00;97292.91;5061791;28;20446;-74
2023/12/07 00:03:51;;;;;;;85.35;30.92;;;;;;;2.61;100.00;97299.06;5062272;28;20458;-74
2023/12/07 00:06:17;;;;;;;95.05;34.75;;;;;;;2.51;100.00;97302.94;5080671;28;20483;-74
2023/12/07 00:08:42;;;;;;;99.72;36.97;;;;;;;2.53;100.00;97288.75;5074768;28;20051;-74
2023/12/07 00:11:08;;;;;;;106.55;37.60;;;;;;;2.60;100.00;97302.63;5065388;28;20024;-74
2023/12/07 00:13:33;;;;;;;95.85;35.72;;;;;;;2.51;100.00;97300.28;5072128;28;20035;-74
2023/12/07 00:15:59;;;;;;;106.75;37.15;;;;;;;2.46;100.00;97305.72;5074777;28;20020;-75
2023/12/07 00:18:24;;;;;;;103.00;36.72;;;;;;;2.57;100.00;97316.78;5048579;28;20044;-73
2023/12/07 00:20:50;;;;;;;95.75;34.47;;;;;;;2.63;100.00;97313.06;5070610;28;20059;-74
2023/12/07 00:23:16;;;;;;;96.15;35.58;;;;;;;2.57;100.00;97321.19;5073096;28;20028;-73
2023/12/07 00:25:41;;;;;;;91.68;32.20;;;;;;;2.43;100.00;97318.19;5066300;28;20039;-74
2023/12/07 00:28:07;;;;;;;106.53;34.05;;;;;;;2.44;100.00;97320.75;5070341;28;20498;-74
2023/12/07 00:30:33;;;;;;;105.63;33.95;;;;;;;2.41;100.00;97315.56;5073583;28;20082;-72
2023/12/07 00:33:00;;;;;;;102.80;31.15;;;;;;;2.44;100.00;97319.88;5058753;28;20020;-73
2023/12/07 00:35:28;;;;;;;85.53;28.38;;;;;;;2.32;100.00;97318.50;5071254;28;20046;-74
2023/12/07 00:37:56;;;;;;;89.20;28.98;;;;;;;2.30;100.00;97307.16;5085844;28;20104;-73
2023/12/07 00:40:22;;;;;;;88.57;27.13;;;;;;;2.29;100.00;97323.03;5063271;28;20115;-73
2023/12/07 00:42:47;;;;;;;96.80;29.95;;;;;;;2.24;100.00;97317.91;5052106;28;20025;-74
2023/12/07 00:45:13;;;;;;;99.35;30.35;;;;;;;2.26;100.00;97316.09;5053204;28;20047;-73
2023/12/07 00:47:39;;;;;;;100.72;32.00;;;;;;;2.27;100.00;97322.22;5056493;28;20028;-73
2023/12/07 00:50:05;;;;;;;100.65;31.73;;;;;;;2.21;100.00;97328.56;5079297;28;20473;-73
2023/12/07 00:52:31;;;;;;;102.45;30.77;;;;;;;2.21;100.00;97328.56;5072054;28;20098;-73
2023/12/07 00:54:57;;;;;;;119.97;33.95;;;;;;;2.27;100.00;97323.09;5081944;28;20028;-74
2023/12/07 00:57:22;;;;;;;95.57;31.75;;;;;;;2.41;100.00;97336.69;5073024;28;20073;-73
2023/12/07 00:59:48;;;;;;;88.78;30.45;;;;;;;2.44;100.00;97336.56;5072141;28;20037;-74
2023/12/07 01:02:13;;;;;;;124.05;31.48;;;;;;;2.48;100.00;97335.56;5052470;28;20448;-74
2023/12/07 01:04:39;;;;;;;95.30;28.13;;;;;;;2.43;100.00;97340.13;5079810;28;20039;-73
2023/12/07 01:07:05;;;;;;;149.07;30.77;;;;;;;2.34;100.00;97337.78;5056755;28;20020;-73
2023/12/07 01:09:30;;;;;;;109.22;28.33;;;;;;;2.25;100.00;97330.19;5073083;28;20024;-73
2023/12/07 01:11:57;;;;;;;106.60;28.88;;;;;;;2.39;100.00;97333.25;5052936;28;20033;-73
2023/12/07 01:14:24;;;;;;;123.43;30.60;;;;;;;2.33;100.00;97337.84;5061521;28;20020;-73
2023/12/07 01:16:49;;;;;;;115.55;28.98;;;;;;;2.29;100.00;97345.00;5053041;28;20028;-74
2023/12/07 01:19:15;;;;;;;107.95;27.15;;;;;;;2.29;100.00;97341.50;5071065;28;20042;-74
2023/12/07 01:21:41;;;;;;;117.20;28.67;;;;;;;2.22;100.00;97343.47;5055361;28;20434;-73
2023/12/07 01:24:08;;;;;;;125.82;30.17;;;;;;;2.24;100.00;97339.03;5073016;28;20024;-73
2023/12/07 01:26:33;;;;;;;121.35;29.70;;;;;;;2.30;100.00;97340.59;5072942;28;20032;-73
2023/12/07 01:28:59;;;;;;;99.93;29.30;;;;;;;2.26;100.00;97336.31;5073197;28;20194;-74
2023/12/07 01:31:24;;;;;;;117.45;31.02;;;;;;;2.34;100.00;97335.16;5072752;28;20535;-73
2023/12/07 01:33:50;;;;;;;115.28;28.42;;;;;;;2.39;100.00;97338.53;5090805;28;20024;-75
2023/12/07 01:36:16;;;;;;;111.97;29.50;;;;;;;2.40;100.00;97342.88;5073143;28;20051;-75
2023/12/07 01:38:43;;;;;;;167.45;31.73;;;;;;;2.42;100.00;97335.78;5072760;28;20063;-73
2023/12/07 01:41:09;;;;;;;106.50;28.10;;;;;;;2.48;100.00;97338.22;5069987;28;20610;-74
2023/12/07 01:43:34;;;;;;;138.48;31.00;;;;;;;2.43;100.00;97339.28;5059721;28;20107;-75
2023/12/07 01:46:00;;;;;;;129.63;31.15;;;;;;;2.35;100.00;97339.53;5052699;28;20396;-74
2023/12/07 01:48:26;;;;;;;149.80;32.10;;;;;;;2.31;100.00;97332.59;5035997;28;20043;-74
2023/12/07 01:50:53;;;;;;;125.10;32.10;;;;;;;2.21;100.00;97314.50;4995438;28;1489321;-74
2023/12/07 01:53:19;;;;;;;110.03;34.10;;;;;;;2.24;100.00;97320.56;5073811;28;20480;-74
2023/12/07 01:55:45;;;;;;;111.10;33.13;;;;;;;2.37;100.00;97328.94;5073547;28;20039;-74
2023/12/07 01:58:11;;;;;;;92.63;30.77;;;;;;;2.37;100.00;97321.84;5091943;28;20098;-74
2023/12/07 02:00:36;;;;;;;95.20;31.63;;;;;;;2.40;100.00;97329.66;5056603;28;20526;-74
2023/12/07 02:03:05;;;;;;;102.25;33.03;;;;;;;2.41;100.00;97312.94;5056867;28;20039;-74
2023/12/07 02:05:32;;;;;;;84.88;30.77;;;;;;;2.48;100.00;97327.66;5056930;28;20028;-74
2023/12/07 02:07:58;;;;;;;86.82;30.63;;;;;;;2.57;100.00;97331.75;5073226;28;20506;-74
2023/12/07 02:10:24;;;;;;;86.90;32.03;;;;;;;2.64;100.00;97323.59;5072835;28;20020;-74
2023/12/07 02:12:53;;;;;;;92.53;31.13;;;;;;;2.69;100.00;97328.69;5073277;28;20038;-76
2023/12/07 02:15:19;;;;;;;86.28;29.98;;;;;;;2.65;100.00;97325.28;5056794;28;20464;-75
2023/12/07 02:18:15;;;;;;;84.45;31.52;;;;;;;2.70;100.00;97331.28;5091287;28;20094;-73
2023/12/07 02:20:48;;;;;;;92.78;31.98;;;;;;;2.72;100.00;97325.94;5073167;28;20059;-74
2023/12/07 02:23:15;;;;;;;84.28;30.40;;;;;;;2.54;100.00;97322.16;5073784;28;20028;-75
2023/12/07 02:28:48;;;;;;;95.20;29.70;;;;;;;2.41;100.00;97318.22;5089914;28;20563;-74
2023/12/07 02:31:13;;;;;;;92.45;26.88;;;;;;;2.41;100.00;97320.84;5057817;28;20130;-74
2023/12/07 02:33:39;;;;;;;99.50;29.58;;;;;;;2.33;100.00;97328.16;5072723;28;20454;-74
2023/12/07 02:36:05;;;;;;;89.90;27.80;;;;;;;2.30;100.00;97320.34;5056093;28;20131;-74
2023/12/07 02:38:31;;;;;;;104.97;29.42;;;;;;;2.31;100.00;97322.06;5069886;28;20031;-74
2023/12/07 02:40:57;;;;;;;86.90;29.75;;;;;;;2.35;100.00;97312.28;5062234;28;20072;-74
2023/12/07 02:43:23;;;;;;;94.68;29.63;;;;;;;2.32;100.00;97318.50;5066437;28;20032;-74
2023/12/07 02:45:48;;;;;;;87.90;29.45;;;;;;;2.36;100.00;97316.63;5072885;28;20554;-74
2023/12/07 02:48:14;;;;;;;92.65;28.92;;;;;;;2.40;100.00;97321.75;5070845;28;20020;-74
2023/12/07 02:50:40;;;;;;;98.18;31.13;;;;;;;2.33;100.00;97309.69;5052575;28;20049;-73
2023/12/07 02:53:05;;;;;;;93.63;28.33;;;;;;;2.36;100.00;97325.44;5035534;28;20041;-74
2023/12/07 02:55:31;;;;;;;91.35;29.23;;;;;;;2.32;100.00;97318.50;5052667;28;20021;-74
2023/12/07 02:57:56;;;;;;;86.00;28.45;;;;;;;2.32;100.00;97313.25;5052351;28;20614;-74
2023/12/07 03:00:22;;;;;;;93.10;31.02;;;;;;;2.47;100.00;97333.84;5052306;28;20058;-73
2023/12/07 03:02:48;;;;;;;96.85;30.25;;;;;;;2.42;100.00;97325.22;5052284;28;20089;-74
2023/12/07 03:05:13;;;;;;;75.78;28.27;;;;;;;2.43;100.00;97332.19;5035669;28;20028;-74
2023/12/07 03:07:39;;;;;;;85.70;30.55;;;;;;;2.46;100.00;97334.75;5052443;28;20040;-74
2023/12/07 03:10:05;;;;;;;85.15;30.83;;;;;;;2.48;100.00;97332.06;5051973;28;20031;-74
2023/12/07 03:12:31;;;;;;;89.70;29.75;;;;;;;2.51;100.00;97337.25;5052173;28;20055;-74
2023/12/07 03:15:12;;;;;;;;;;;;;;;;;;;;;
2023/12/07 03:17:38;;;;;;;81.28;31.17;;;;;;;2.52;100.00;97339.81;5053993;28;20838;-75
2023/12/07 03:20:05;;;;;;;83.88;28.40;;;;;;;2.64;100.00;97351.75;5077589;28;20435;-75
2023/12/07 03:22:31;;;;;;;76.38;27.10;;;;;;;2.63;100.00;97348.25;5088900;28;20030;-75
2023/12/07 03:24:56;;;;;;;68.28;24.10;;;;;;;2.70;100.00;97344.50;5057473;28;20040;-75
2023/12/07 03:27:22;;;;;;;65.05;25.50;;;;;;;2.70;100.00;97347.13;5051830;28;20468;-75
2023/12/07 03:29:51;;;;;;;68.80;25.88;;;;;;;2.77;100.00;97357.50;5042024;28;20028;-76
2023/12/07 03:32:16;;;;;;;65.28;24.80;;;;;;;2.77;100.00;97354.84;5053333;28;20039;-75
2023/12/07 03:34:42;;;;;;;60.63;26.33;;;;;;;2.75;100.00;97362.81;5069928;28;20375;-75
2023/12/07 03:37:08;;;;;;;69.90;27.15;;;;;;;2.80;100.00;97360.84;5051896;28;20428;-75
2023/12/07 03:39:33;;;;;;;69.90;27.33;;;;;;;2.80;100.00;97360.03;5051667;28;20127;-75
2023/12/07 03:41:59;;;;;;;58.88;25.25;;;;;;;2.77;100.00;97363.59;5066555;28;20532;-75
2023/12/07 03:44:26;;;;;;;67.78;27.48;;;;;;;2.83;100.00;97357.28;5072005;28;20036;-74
2023/12/07 03:46:52;;;;;;;58.88;25.48;;;;;;;2.78;100.00;97349.50;5072402;28;20028;-74
2023/12/07 03:49:18;;;;;;;76.95;28.23;;;;;;;2.85;100.00;97358.06;5071779;28;20082;-74
2023/12/07 03:51:43;;;;;;;71.47;29.67;;;;;;;2.89;100.00;97357.06;5068094;28;20044;-74
2023/12/07 03:54:09;;;;;;;65.47;26.38;;;;;;;2.95;100.00;97356.84;5069510;28;20053;-74
2023/12/07 03:56:35;;;;;;;64.13;26.45;;;;;;;2.95;100.00;97354.22;5051568;28;20094;-73
2023/12/07 03:59:00;;;;;;;66.47;25.63;;;;;;;2.95;100.00;97356.84;5051775;28;20035;-74
2023/12/07 04:01:27;;;;;;;71.65;27.13;;;;;;;3.01;100.00;97351.34;5054029;28;20033;-74
2023/12/07 04:03:54;;;;;;;70.85;27.35;;;;;;;3.00;100.00;97357.53;5071700;28;20024;-74
2023/12/07 04:06:20;;;;;;;69.20;27.02;;;;;;;2.86;100.00;97351.88;5089780;28;20024;-74
2023/12/07 04:08:46;;;;;;;66.47;27.50;;;;;;;2.92;100.00;97351.69;5071818;28;20078;-74
2023/12/07 04:11:13;;;;;;;63.75;26.33;;;;;;;2.96;100.00;97356.78;5071182;28;20031;-74
2023/12/07 04:13:39;;;;;;;55.83;24.63;;;;;;;3.04;100.00;97360.03;5052195;28;20078;-74
2023/12/07 04:16:05;;;;;;;57.17;24.77;;;;;;;3.00;100.00;97365.47;5059132;28;20028;-73
2023/12/07 04:18:31;;;;;;;62.88;22.33;;;;;;;3.03;100.00;97362.72;5070012;28;20039;-74
2023/12/07 04:20:57;;;;;;;55.97;23.58;;;;;;;3.09;100.00;97367.78;5051475;28;20032;-74
2023/12/07 04:23:22;;;;;;;63.33;24.85;;;;;;;3.07;100.00;97380.19;5051439;28;20052;-74
2023/12/07 04:25:48;;;;;;;57.97;23.05;;;;;;;3.02;100.00;97382.97;5051870;28;20027;-74
2023/12/07 04:28:14;;;;;;;61.30;23.48;;;;;;;3.01;100.00;97383.06;5051551;28;20103;-75
2023/12/07 04:30:39;;;;;;;53.22;22.75;;;;;;;2.93;100.00;97385.06;5054815;28;20024;-74
2023/12/07 04:33:05;;;;;;;57.45;24.67;;;;;;;2.92;100.00;97381.59;5091029;28;20630;-74
2023/12/07 04:35:31;;;;;;;59.45;25.33;;;;;;;2.92;100.00;97393.94;5074897;28;20071;-75
2023/12/07 04:37:57;;;;;;;56.20;22.55;;;;;;;2.83;100.00;97381.03;5091985;28;20491;-75
2023/12/07 04:40:24;;;;;;;61.15;22.58;;;;;;;2.90;100.00;97404.53;5075014;28;20039;-75
2023/12/07 04:42:49;;;;;;;59.50;23.17;;;;;;;2.72;100.00;97392.81;5075294;28;20024;-75
2023/12/07 04:45:15;;;;;;;59.92;25.40;;;;;;;2.83;100.00;97403.00;5075001;28;20043;-75
2023/12/07 04:47:41;;;;;;;66.97;25.30;;;;;;;2.83;100.00;97402.16;5074592;28;20054;-75
2023/12/07 04:50:07;;;;;;;58.95;23.40;;;;;;;2.77;100.00;97397.09;5056210;28;20114;-75
2023/12/07 04:52:33;;;;;;;63.75;24.10;;;;;;;2.74;100.00;97398.91;5034714;28;20443;-75
2023/12/07 04:54:59;;;;;;;56.38;23.40;;;;;;;2.72;100.00;97402.53;5050222;28;20094;-75
2023/12/07 04:57:25;;;;;;;56.88;23.33;;;;;;;2.78;100.00;97401.44;5072634;28;20472;-75
2023/12/07 04:59:50;;;;;;;57.53;23.05;;;;;;;2.84;100.00;97411.78;5055088;28;20027;-74
2023/12/07 05:02:17;;;;;;;66.97;24.42;;;;;;;2.86;100.00;97402.91;5072420;28;20031;-74
2023/12/07 05:04:43;;;;;;;59.30;24.23;;;;;;;2.98;100.00;97410.44;5054586;28;20039;-73
2023/12/07 05:07:09;;;;;;;61.67;24.23;;;;;;;2.98;100.00;97406.94;5038099;28;20020;-81
2023/12/07 05:09:34;;;;;;;58.00;23.35;;;;;;;2.87;100.00;97416.97;5054381;28;20468;-74
2023/12/07 05:12:00;;;;;;;53.95;22.30;;;;;;;2.82;100.00;97411.88;5049452;28;20047;-75
2023/12/07 05:14:26;;;;;;;56.65;21.38;;;;;;;2.78;100.00;97419.94;5052105;28;20176;-74
2023/12/07 05:16:55;;;;;;;52.40;21.60;;;;;;;2.84;100.00;97417.06;5054368;28;20080;-72
2023/12/07 05:19:24;;;;;;;48.22;18.77;;;;;;;2.81;100.00;97414.53;5054916;28;20507;-73
2023/12/07 05:21:51;;;;;;;46.65;17.88;;;;;;;2.88;100.00;97421.34;5050785;28;20112;-72
2023/12/07 05:24:18;;;;;;;44.28;18.33;;;;;;;2.97;100.00;97426.31;5018365;28;20125;-79
2023/12/07 05:26:47;;;;;;;43.22;18.40;;;;;;;3.06;100.00;97432.16;5034815;28;20025;-73
2023/12/07 05:29:13;;;;;;;47.10;18.10;;;;;;;3.12;100.00;97441.66;5034463;28;20024;-79
2023/12/07 05:31:39;;;;;;;46.03;18.17;;;;;;;3.09;100.00;97426.78;5051814;28;20025;-78
2023/12/07 05:34:05;;;;;;;40.72;17.08;;;;;;;3.20;100.00;97429.03;5037678;28;20107;-76
2023/12/07 05:36:31;;;;;;;48.08;20.00;;;;;;;3.32;100.00;97433.91;5044060;28;20176;-78
2023/12/07 05:38:57;;;;;;;214.10;96.75;;;;;;;3.36;100.00;97438.16;5033601;28;20032;-76
2023/12/07 05:41:23;;;;;;;51.72;22.50;;;;;;;3.28;100.00;97432.28;5034166;28;20048;-77
2023/12/07 05:43:49;;;;;;;51.47;22.85;;;;;;;3.32;100.00;97428.63;5043718;28;20507;-74
2023/12/07 05:46:15;;;;;;;50.03;20.92;;;;;;;3.31;100.00;97432.19;5041691;28;20048;-74
2023/12/07 05:48:41;;;;;;;46.15;18.88;;;;;;;3.33;100.00;97435.63;5035414;28;20401;-76
2023/12/07 05:51:15;;;;;;;51.53;22.00;;;;;;;3.29;100.00;97434.03;5042947;28;20051;-76
2023/12/07 05:53:41;;;;;;;39.92;17.08;;;;;;;3.16;100.00;97425.66;5053379;28;20025;-75
2023/12/07 05:56:07;;;;;;;41.38;17.15;;;;;;;3.27;100.00;97428.78;5053735;28;20028;-74
2023/12/07 05:58:33;;;;;;;41.65;17.70;;;;;;;3.38;100.00;97433.69;5053284;28;20107;-75
2023/12/07 06:01:00;;;;;;;37.25;16.42;;;;;;;3.40;100.00;97431.84;5053036;28;20028;-75
2023/12/07 06:03:25;;;;;;;47.55;19.13;;;;;;;3.49;100.00;97430.66;5053609;28;20031;-75
2023/12/07 06:05:51;;;;;;;42.47;17.27;;;;;;;3.47;100.00;97436.00;5070953;28;20103;-75
2023/12/07 06:08:17;;;;;;;40.58;17.77;;;;;;;3.44;100.00;97433.47;5053425;28;20034;-74
2023/12/07 06:10:43;;;;;;;42.67;17.55;;;;;;;3.51;100.00;97429.66;5070960;28;20029;-75
2023/12/07 06:13:09;;;;;;;40.13;18.40;;;;;;;3.55;100.00;97430.44;5053356;28;20025;-74
2023/12/07 06:15:34;;;;;;;53.28;23.25;;;;;;;3.44;100.00;97428.19;5053037;28;20020;-74
2023/12/07 06:18:00;;;;;;;49.53;22.42;;;;;;;3.38;100.00;97433.69;5036404;28;20474;-74
2023/12/07 06:20:26;;;;;;;47.28;19.92;;;;;;;3.46;100.00;97436.91;5053262;28;20032;-75
2023/12/07 06:22:52;;;;;;;47.25;20.67;;;;;;;3.52;100.00;97435.81;5070858;28;20033;-73
2023/12/07 06:25:20;;;;;;;46.42;20.13;;;;;;;3.49;100.00;97431.53;5052678;28;20040;-75
2023/12/07 06:27:46;;;;;;;54.85;22.42;;;;;;;3.59;100.00;97442.63;5052948;28;20143;-74
2023/12/07 06:30:12;;;;;;;46.67;19.98;;;;;;;3.59;100.00;97448.78;5036388;28;20120;-74
2023/12/07 06:32:38;;;;;;;47.72;19.63;;;;;;;3.54;100.00;97455.13;5070948;28;20032;-75
2023/12/07 06:35:07;;;;;;;45.67;18.50;;;;;;;3.61;100.00;97462.81;5035872;28;20020;-75
2023/12/07 06:37:33;;;;;;;50.88;22.40;;;;;;;3.63;100.00;97462.78;5052928;28;20111;-74
2023/12/07 06:39:59;;;;;;;100.60;45.08;;;;;;;3.65;100.00;97458.28;5070466;28;20112;-75
2023/12/07 06:42:26;;;;;;;45.58;20.48;;;;;;;3.62;100.00;97458.38;5070706;28;20023;-75
2023/12/07 06:44:51;;;;;;;63.65;25.38;;;;;;;3.64;100.00;97469.75;5052560;28;20021;-75
2023/12/07 06:47:18;;;;;;;44.22;19.90;;;;;;;3.61;100.00;97465.44;5036038;28;20483;-75
2023/12/07 06:49:44;;;;;;;63.95;25.55;;;;;;;3.70;100.00;97470.41;5070747;28;20546;-75
2023/12/07 06:52:10;;;;;;;64.28;24.15;;;;;;;3.79;100.00;97469.19;5070342;28;20407;-75
2023/12/07 06:54:37;;;;;;;77.40;29.00;;;;;;;3.82;100.00;97474.38;5052362;28;20032;-75
2023/12/07 06:57:02;;;;;;;46.47;20.25;;;;;;;3.82;100.00;97477.03;5051892;28;20033;-74
2023/12/07 06:59:28;;;;;;;46.53;20.25;;;;;;;3.73;100.00;97483.53;5035992;28;20032;-73
2023/12/07 07:01:54;;;;;;;51.17;19.85;;;;;;;3.71;100.00;97481.84;5052279;28;20047;-75
2023/12/07 07:04:20;;;;;;;48.95;19.95;;;;;;;3.75;100.00;97486.13;5052402;28;20040;-74
2023/12/07 07:06:45;;;;;;;47.97;19.98;;;;;;;3.64;100.00;97486.50;5052508;28;20032;-74
2023/12/07 07:09:12;;;;;;;52.88;20.13;;;;;;;3.70;100.00;97486.28;5051822;28;20024;-75
2023/12/07 07:11:40;;;;;;;42.72;19.15;;;;;;;3.74;100.00;97490.53;5052557;28;20717;-75
2023/12/07 07:14:06;;;;;;;46.67;18.75;;;;;;;3.70;100.00;97488.91;5070279;28;20047;-75
2023/12/07 07:16:31;;;;;;;46.20;18.08;;;;;;;3.76;100.00;97494.00;5035675;28;20107;-75
2023/12/07 07:18:58;;;;;;;48.33;19.65;;;;;;;3.67;100.00;97489.03;5052017;28;20024;-75
2023/12/07 07:21:23;;;;;;;49.25;19.13;;;;;;;3.64;100.00;97475.91;5052128;28;20024;-75
2023/12/07 07:23:49;;;;;;;51.20;21.13;;;;;;;3.69;100.00;97492.47;5051867;28;20111;-75
2023/12/07 07:26:16;;;;;;;46.17;20.05;;;;;;;3.73;100.00;97491.44;5070020;28;20040;-75
2023/12/07 07:28:43;;;;;;;53.03;20.17;;;;;;;3.83;100.00;97494.63;5052213;28;20029;-74
2023/12/07 07:31:08;;;;;;;46.88;18.35;;;;;;;3.81;100.00;97497.31;5069284;28;20108;-74
2023/12/07 07:33:34;;;;;;;46.13;18.30;;;;;;;3.78;100.00;97486.84;5052209;28;20091;-75
2023/12/07 07:36:00;;;;;;;51.75;21.83;;;;;;;3.86;100.00;97498.94;5052143;28;20520;-74
2023/12/07 07:38:25;;;;;;;60.67;23.02;;;;;;;3.88;100.00;97481.25;5051258;28;20075;-74
2023/12/07 07:40:51;;;;;;;65.70;24.58;;;;;;;3.97;100.00;97494.16;5048536;28;20056;-74
2023/12/07 07:43:17;;;;;;;53.78;20.40;;;;;;;4.03;100.00;97492.09;5051212;28;20471;-74
2023/12/07 07:45:42;;;;;;;60.08;21.23;;;;;;;4.06;100.00;97488.50;5051655;28;20024;-73
2023/12/07 07:48:08;;;;;;;62.03;20.77;;;;;;;4.15;100.00;97502.25;5069595;28;20508;-75
2023/12/07 07:50:36;;;;;;;44.75;18.17;;;;;;;4.21;100.00;97495.88;5064586;28;20136;-75
2023/12/07 07:53:02;;;;;;;56.92;22.25;;;;;;;4.25;100.00;97502.75;5032446;28;20036;-76
2023/12/07 07:55:27;;;;;;;45.17;18.85;;;;;;;4.19;100.00;97493.28;5031698;28;20349;-74
2023/12/07 07:57:53;;;;;;;46.65;17.52;;;;;;;4.28;100.00;97503.50;5031900;28;20031;-75
2023/12/07 08:00:19;;;;;;;50.80;19.20;;;;;;;4.29;100.00;97501.72;5049429;28;20021;-74
2023/12/07 08:02:46;;;;;;;54.08;20.35;;;;;;;4.28;100.00;97497.34;5036455;28;20047;-75
2023/12/07 08:05:15;;;;;;;53.08;20.75;;;;;;;4.30;100.00;97496.41;5038086;28;20099;-75
2023/12/07 08:07:40;;;;;;;56.83;19.90;;;;;;;4.33;100.00;97496.28;5070416;28;20094;-75
2023/12/07 08:10:06;;;;;;;56.25;21.15;;;;;;;4.30;100.00;97506.13;5073538;28;20468;-74
2023/12/07 08:12:33;;;;;;;56.55;21.58;;;;;;;4.28;100.00;97503.50;5048588;28;20028;-74
2023/12/07 08:14:58;;;;;;;53.45;18.45;;;;;;;4.40;100.00;97507.47;5035595;28;20500;-75
2023/12/07 08:17:26;;;;;;;47.15;17.83;;;;;;;4.41;100.00;97501.25;5018670;28;20025;-75
2023/12/07 08:19:52;;;;;;;59.33;22.73;;;;;;;4.37;100.00;97502.28;5035661;28;20338;-75
2023/12/07 08:22:17;;;;;;;64.60;25.35;;;;;;;4.47;100.00;97511.63;5018722;28;20032;-75
2023/12/07 08:24:43;;;;;;;66.72;26.55;;;;;;;4.39;100.00;97505.75;5061089;28;20025;-75
2023/12/07 08:27:09;;;;;;;60.53;26.27;;;;;;;4.47;100.00;97516.03;5055114;28;20020;-74
2023/12/07 08:29:35;;;;;;;62.63;25.48;;;;;;;4.41;100.00;97514.50;5055279;28;20434;-74
2023/12/07 08:32:00;;;;;;;70.22;29.58;;;;;;;4.47;100.00;97518.69;5055311;28;20360;-76
2023/12/07 08:34:26;;;;;;;71.25;27.08;;;;;;;4.51;100.00;97510.59;5040534;28;20035;-75
2023/12/07 08:36:52;;;;;;;65.07;23.50;;;;;;;4.27;100.00;97514.19;5055045;28;20024;-76
2023/12/07 08:39:17;;;;;;;61.67;24.58;;;;;;;4.28;100.00;97513.22;5054837;28;20395;-74
2023/12/07 08:41:43;;;;;;;52.65;21.77;;;;;;;4.44;100.00;97524.97;5038084;28;20024;-75
2023/12/07 08:44:09;;;;;;;64.18;26.42;;;;;;;4.35;100.00;97528.84;5072943;28;20488;-75
2023/12/07 08:46:34;;;;;;;76.97;28.88;;;;;;;4.26;100.00;97523.03;5072870;28;20032;-76
2023/12/07 08:49:01;;;;;;;84.18;30.08;;;;;;;4.35;100.00;97520.03;5054959;28;20391;-75
2023/12/07 08:51:27;;;;;;;67.43;26.27;;;;;;;4.27;100.00;97532.69;5066523;28;20102;-75
2023/12/07 08:53:53;;;;;;;68.22;25.48;;;;;;;4.35;100.00;97536.78;5071493;28;20082;-75
2023/12/07 08:56:20;;;;;;;63.92;25.33;;;;;;;4.40;100.00;97527.81;5058547;28;20027;-75
2023/12/07 08:58:45;;;;;;;66.13;26.25;;;;;;;4.42;100.00;97526.84;5059021;28;20431;-75
2023/12/07 09:01:11;;;;;;;64.38;24.75;;;;;;;4.40;100.00;97533.94;5072293;28;20024;-75
2023/12/07 09:03:37;;;;;;;49.45;20.83;;;;;;;4.39;100.00;97532.25;5082520;28;20090;-76
2023/12/07 09:06:03;;;;;;;49.20;19.27;;;;;;;4.09;100.00;97528.94;5091298;28;20028;-75
2023/12/07 09:08:28;;;;;;;43.65;17.05;;;;;;;4.27;100.00;97535.34;5074481;28;20106;-74
2023/12/07 09:10:54;;;;;;;33.78;13.85;;;;;;;4.35;100.00;97525.31;5074596;28;20556;-74
2023/12/07 09:13:20;;;;;;;39.88;15.68;;;;;;;4.40;100.00;97520.72;5074299;28;20020;-74
2023/12/07 09:15:45;;;;;;;35.05;14.82;;;;;;;4.52;100.00;97524.69;5070984;28;20028;-75
2023/12/07 09:18:11;;;;;;;33.55;14.10;;;;;;;4.52;100.00;97512.31;5072210;28;20036;-75
2023/12/07 09:20:37;;;;;;;34.72;15.38;;;;;;;4.60;100.00;97512.00;5071998;28;20062;-75
2023/12/07 09:23:04;;;;;;;38.17;16.38;;;;;;;4.54;100.00;97526.38;5037720;28;20028;-74
2023/12/07 09:25:30;;;;;;;39.88;14.73;;;;;;;4.62;100.00;97524.25;5056958;28;20024;-75
2023/12/07 09:27:56;;;;;;;32.38;13.65;;;;;;;4.67;100.00;97522.31;5092342;28;20543;-75
2023/12/07 09:30:22;;;;;;;29.92;11.60;;;;;;;4.63;100.00;97512.75;5092164;28;20146;-75
2023/12/07 09:32:47;;;;;;;31.30;13.48;;;;;;;4.49;100.00;97532.75;5073782;28;20032;-75
2023/12/07 09:35:16;;;;;;;35.47;14.75;;;;;;;4.37;100.00;97518.19;5091989;28;20402;-75
2023/12/07 09:37:42;;;;;;;40.10;15.52;;;;;;;4.21;100.00;97517.06;5057542;28;20028;-75
2023/12/07 09:40:07;;;;;;;39.22;15.93;;;;;;;4.22;100.00;97518.75;5092072;28;20498;-76
2023/12/07 09:42:33;;;;;;;41.38;16.75;;;;;;;4.24;100.00;97516.94;5057084;28;20027;-76
2023/12/07 09:44:59;;;;;;;40.83;16.92;;;;;;;4.34;100.00;97523.59;5091996;28;20027;-75
2023/12/07 09:47:28;;;;;;;37.38;16.13;;;;;;;4.33;100.00;97513.94;5074005;28;20035;-76
2023/12/07 09:49:54;;;;;;;39.58;15.13;;;;;;;4.41;100.00;97525.09;5073548;28;20400;-75
2023/12/07 09:52:22;;;;;;;33.83;15.63;;;;;;;4.26;100.00;97509.78;5056706;28;20054;-76
2023/12/07 09:54:49;;;;;;;40.95;16.95;;;;;;;4.40;100.00;97517.22;5091799;28;20059;-76
2023/12/07 09:57:15;;;;;;;42.67;17.02;;;;;;;4.57;100.00;97515.66;5073950;28;20024;-75
2023/12/07 09:59:41;;;;;;;38.78;16.85;;;;;;;4.63;100.00;97504.81;5072942;28;20066;-76
2023/12/07 10:02:10;;;;;;;32.15;14.45;;;;;;;4.64;100.00;97517.16;5070242;28;20119;-76
2023/12/07 10:04:36;;;;;;;36.92;14.63;;;;;;;4.50;100.00;97513.28;5071340;28;20036;-76
2023/12/07 10:07:02;;;;;;;36.78;15.80;;;;;;;4.42;100.00;97503.00;5073391;28;20096;-76
2023/12/07 10:09:27;;;;;;;34.05;15.55;;;;;;;4.46;100.00;97507.22;5054799;28;20095;-75
2023/12/07 10:12:06;;;;;;;29.45;12.57;;;;;;;4.23;100.00;97504.63;5057921;28;20031;-75
2023/12/07 10:14:32;;;;;;;38.83;13.63;;;;;;;4.29;100.00;97505.25;5056816;28;20028;-76
2023/12/07 10:16:58;;;;;;;32.13;13.68;;;;;;;4.48;100.00;97505.41;5073059;28;20076;-75
2023/12/07 10:19:25;;;;;;;33.92;14.15;;;;;;;4.61;100.00;97488.13;5073025;28;20506;-76
2023/12/07 10:21:51;;;;;;;32.47;13.25;;;;;;;4.76;100.00;97500.75;5072931;28;20035;-75
2023/12/07 10:24:18;;;;;;;31.27;12.93;;;;;;;4.78;100.00;97504.22;5073195;28;20141;-75
2023/12/07 10:26:44;;;;;;;26.08;11.80;;;;;;;4.67;100.00;97505.56;5072610;28;20027;-76
2023/12/07 10:29:10;;;;;;;28.48;12.55;;;;;;;4.66;100.00;97502.03;5052878;28;20024;-76
2023/12/07 10:31:37;;;;;;;22.70;11.10;;;;;;;4.72;100.00;97499.16;5046574;28;20080;-75
2023/12/07 10:34:04;;;;;;;34.03;12.70;;;;;;;4.72;100.00;97499.16;5052824;28;20439;-76
2023/12/07 10:36:30;;;;;;;28.85;11.95;;;;;;;4.70;100.00;97501.00;5052965;28;20110;-76
2023/12/07 10:38:55;;;;;;;27.63;12.95;;;;;;;4.70;100.00;97493.06;5052429;28;20115;-76
2023/12/07 10:41:23;;;;;;;25.50;12.57;;;;;;;4.71;100.00;97497.41;5057766;28;20035;-76
2023/12/07 10:43:54;;;;;;;30.02;12.50;;;;;;;4.74;100.00;97499.94;5090881;28;20107;-76
2023/12/07 10:46:21;;;;;;;35.22;16.85;;;;;;;4.72;100.00;97496.50;5056916;28;20025;-76
2023/12/07 10:48:48;;;;;;;36.72;15.95;;;;;;;4.59;100.00;97487.31;5052795;28;20616;-76
2023/12/07 10:51:31;;;;;;;30.88;13.50;;;;;;;4.66;100.00;97491.44;5063436;28;20105;-75
2023/12/07 10:53:58;;;;;;;29.17;15.32;;;;;;;4.67;100.00;97479.94;5052492;28;20385;-76
2023/12/07 10:56:40;;;;;;;26.63;13.35;;;;;;;4.50;100.00;97486.78;5056133;28;20028;-76
2023/12/07 10:59:09;;;;;;;22.10;9.27;;;;;;;4.57;100.00;97488.28;5072286;28;20153;-76
2023/12/07 11:01:36;;;;;;;31.13;15.00;;;;;;;4.64;100.00;97484.50;5072715;28;20088;-76
2023/12/07 11:04:02;;;;;;;30.90;13.60;;;;;;;4.64;100.00;97495.09;5055707;28;20131;-76
2023/12/07 11:06:28;;;;;;;33.10;14.15;;;;;;;4.53;100.00;97492.84;5072419;28;20031;-76
2023/12/07 11:09:03;;;;;;;26.25;11.45;;;;;;;4.65;100.00;97495.00;5056767;28;20090;-76
2023/12/07 11:11:34;;;;;;;29.42;13.13;;;;;;;4.51;100.00;97484.09;5056853;28;20037;-76
2023/12/07 11:14:05;;;;;;;28.13;12.05;;;;;;;4.56;100.00;97490.06;5064373;28;20052;-76
2023/12/07 11:16:40;;;;;;;31.85;14.05;;;;;;;4.51;100.00;97486.75;5072213;28;20055;-75